Time;durP1;ratioP1;P1;durP2;ratioP2;P2;SDS_P1;SDS_P2;PMS_P1;PMS_P2;Temp;Humidity;BMP_temperature;BMP_pressure;BME280_temperature;BME280_humidity;BME280_pressure;Samples;Min_cycle;Max_cycle;Signal;HPM_P1;HPM_P2
2023/01/29 00:01:40;;;;;;;;;;;;;;;3.60;76.46;101362.72;5060711;28;19950;-70
2023/01/29 00:04:05;;;;;;;;;;;;;;;3.63;75.99;101360.16;5059376;28;19937;-70
2023/01/29 00:06:31;;;;;;;;;;;;;;;3.59;76.06;101363.59;5070989;28;19977;-70
2023/01/29 00:08:56;;;;;;;;;;;;;;;3.62;76.23;101358.38;5061441;28;19943;-70
2023/01/29 00:11:24;;;;;;;;;;;;;;;3.57;76.42;101352.16;5051416;28;19963;-70
2023/01/29 00:13:49;;;;;;;;;;;;;;;3.56;76.61;101346.00;5068984;28;19956;-70
2023/01/29 00:16:15;;;;;;;;;;;;;;;3.54;75.85;101346.88;5050895;28;20017;-70
2023/01/29 00:18:40;;;;;;;;;;;;;;;3.58;75.46;101348.66;5065596;28;19943;-70
2023/01/29 00:21:14;;;;;;;;;;;;;;;3.52;74.50;101338.06;5069570;28;20024;-70
2023/01/29 00:23:39;;;;;;;;;;;;;;;3.53;74.05;101342.44;5065586;28;19939;-69
2023/01/29 00:26:05;;;;;;;;;;;;;;;3.50;74.05;101337.13;5068945;28;19934;-70
2023/01/29 00:28:30;;;;;;;;;;;;;;;3.51;73.88;101333.66;5069515;28;19935;-70
2023/01/29 00:30:55;;;;;;;;;;;;;;;3.51;74.36;101338.94;5064490;28;19996;-69
2023/01/29 00:33:20;;;;;;;;;;;;;;;3.55;74.34;101343.34;5065061;28;19946;-70
2023/01/29 00:35:46;;;;;;;;;;;;;;;3.51;74.83;101338.94;5068710;28;19994;-69
2023/01/29 00:38:11;;;;;;;;;;;;;;;3.50;74.80;101340.66;5062263;28;19941;-70
2023/01/29 00:46:05;;;;;;;;;;;;;;;3.51;75.76;101333.66;5048611;28;19996;-69
2023/01/29 00:48:31;;;;;;;;;;;;;;;3.50;75.86;101337.13;5058016;28;20377;-68
2023/01/29 00:50:56;;;;;;;;;;;;;;;3.49;76.22;101335.38;5071520;28;19937;-70
2023/01/29 00:53:21;;;;;;;;;;;;;;;3.52;76.28;101335.41;5072818;28;19937;-70
2023/01/29 00:55:46;;;;;;;;;;;;;;;3.56;76.31;101331.97;5060447;28;20398;-71
2023/01/29 00:58:12;;;;;;;;;;;;;;;3.57;76.41;101331.13;5052485;28;19924;-70
2023/01/29 01:00:37;;;;;;;;;;;;;;;3.52;75.91;101330.16;5054761;28;20439;-71
2023/01/29 01:03:05;;;;;;;;;;;;;;;3.49;75.41;101338.88;5036715;28;20033;-70
2023/01/29 01:05:30;;;;;;;;;;;;;;;3.42;75.53;101333.50;5072530;28;20443;-70
2023/01/29 01:07:56;;;;;;;;;;;;;;;3.36;74.41;101336.03;5054127;28;19942;-70
2023/01/29 01:10:23;;;;;;;;;;;;;;;3.38;74.81;101334.28;5061606;28;19973;-70
2023/01/29 01:12:58;;;;;;;;;;;;;;;3.41;74.54;101331.72;5071623;28;19974;-70
2023/01/29 01:15:25;;;;;;;;;;;;;;;3.41;74.84;101334.38;5062352;28;20277;-70
2023/01/29 01:17:51;;;;;;;;;;;;;;;3.34;74.40;101338.63;5051288;28;20007;-69
2023/01/29 01:20:16;;;;;;;;;;;;;;;3.38;74.81;101344.81;5051229;28;19953;-70
2023/01/29 01:22:41;;;;;;;;;;;;;;;3.39;75.07;101344.88;5052951;28;20353;-70
2023/01/29 01:25:07;;;;;;;;;;;;;;;3.30;74.62;101339.44;5051627;28;19993;-70
2023/01/29 01:27:33;;;;;;;;;;;;;;;3.26;74.19;101339.34;5060814;28;19950;-70
2023/01/29 01:29:59;;;;;;;;;;;;;;;3.29;74.69;101344.66;5063883;28;19952;-70
2023/01/29 01:32:24;;;;;;;;;;;;;;;3.29;74.35;101336.78;5051857;28;19931;-69
2023/01/29 01:34:51;;;;;;;;;;;;;;;3.23;74.58;101355.06;5057382;28;20365;-69
2023/01/29 01:37:16;;;;;;;;;;;;;;;3.21;73.61;101339.28;5070779;28;19988;-70
2023/01/29 01:39:41;;;;;;;;;;;;;;;3.22;73.45;101345.41;5072203;28;19959;-70
2023/01/29 01:42:12;;;;;;;;;;;;;;;3.24;73.89;101347.22;5071781;28;19940;-70
2023/01/29 01:44:50;;;;;;;;;;;;;;;3.19;73.32;101346.25;5063309;28;19941;-70
2023/01/29 01:47:16;;;;;;;;;;;;;;;3.19;72.90;101353.22;5052165;28;19938;-70
2023/01/29 01:49:42;;;;;;;;;;;;;;;3.18;73.34;101360.22;5054190;28;19943;-70
2023/01/29 01:52:08;;;;;;;;;;;;;;;3.24;73.52;101355.09;5060578;28;19995;-70
2023/01/29 01:54:33;;;;;;;;;;;;;;;3.18;72.83;101354.97;5071961;28;19933;-71
2023/01/29 01:57:08;;;;;;;;;;;;;;;3.14;72.16;101350.53;5039373;28;20040;-70
2023/01/29 01:59:34;;;;;;;;;;;;;;;3.18;73.23;101344.44;5065468;28;19949;-70
2023/01/29 02:10:15;;;;;;;;;;;;;;;3.27;74.12;101338.47;5070917;28;19947;-70
2023/01/29 02:12:41;;;;;;;;;;;;;;;3.26;74.47;101341.97;5055800;28;19963;-70
2023/01/29 02:15:45;;;;;;;;;;;;;;;3.26;74.81;101336.72;5050913;28;19935;-70
2023/01/29 02:18:11;;;;;;;;;;;;;;;3.16;73.05;101334.78;5051253;28;20012;-70
2023/01/29 02:20:37;;;;;;;;;;;;;;;3.17;72.56;101336.53;5053246;28;19956;-69
2023/01/29 02:23:02;;;;;;;;;;;;;;;3.13;72.31;101338.22;5051052;28;19947;-69
2023/01/29 02:25:36;;;;;;;;;;;;;;;2.93;73.41;101304.56;5051104;28;19934;-69
2023/01/29 02:28:06;;;;;;;;;;;;;;;3.13;73.91;101338.22;5051163;28;19938;-70
2023/01/29 02:30:36;;;;;;;;;;;;;;;3.10;73.61;101335.56;5052809;28;19943;-70
2023/01/29 02:33:17;;;;;;;;;;;;;;;3.14;73.34;101347.00;5050996;28;19940;-70
2023/01/29 02:35:51;;;;;;;;;;;;;;;3.17;73.65;101347.06;5068148;28;19935;-70
2023/01/29 02:38:17;;;;;;;;;;;;;;;3.17;74.20;101339.16;5053102;28;19939;-70
2023/01/29 02:40:54;;;;;;;;;;;;;;;3.14;74.09;101347.91;5047742;28;20020;-69
2023/01/29 02:43:31;;;;;;;;;;;;;;;3.12;74.04;101340.84;5070607;28;19989;-70
2023/01/29 02:46:29;;;;;;;;;;;;;;;3.11;74.04;101337.34;5067652;28;19938;-69
2023/01/29 02:48:56;;;;;;;;;;;;;;;3.20;74.32;101339.22;5038720;28;19934;-69
2023/01/29 02:51:43;;;;;;;;;;;;;;;3.16;74.18;101345.31;5051885;28;20297;-69
2023/01/29 02:54:23;;;;;;;;;;;;;;;3.12;74.15;101338.19;5063896;28;19977;-70
2023/01/29 02:56:59;;;;;;;;;;;;;;;3.14;75.06;101332.13;5049080;28;19942;-69
2023/01/29 02:59:32;;;;;;;;;;;;;;;3.19;75.66;101334.84;5049560;28;19963;-70
2023/01/29 03:02:04;;;;;;;;;;;;;;;3.16;75.14;101333.06;5048674;28;20290;-70
2023/01/29 03:04:32;;;;;;;;;;;;;;;3.12;74.68;101335.56;5064850;28;19947;-70
2023/01/29 03:07:05;;;;;;;;;;;;;;;3.11;74.48;101341.69;5070238;28;19960;-69
2023/01/29 03:09:36;;;;;;;;;;;;;;;3.17;74.44;101342.69;5070304;28;20322;-71
2023/01/29 03:12:33;;;;;;;;;;;;;;;3.13;75.06;101342.63;5065378;28;19970;-70
2023/01/29 03:15:10;;;;;;;;;;;;;;;3.17;75.39;101336.53;5069846;28;19979;-70
2023/01/29 03:17:37;;;;;;;;;;;;;;;3.08;74.52;101341.66;5059491;28;19986;-70
2023/01/29 03:20:06;;;;;;;;;;;;;;;3.10;74.36;101338.19;5031906;28;20054;-70
2023/01/29 03:22:32;;;;;;;;;;;;;;;3.06;74.27;101327.59;5033246;28;20708;-71
2023/01/29 03:33:14;;;;;;;;;;;;;;;3.00;74.37;101325.72;5070089;28;19989;-71
2023/01/29 03:35:43;;;;;;;;;;;;;;;2.97;74.54;101337.91;5065803;28;20115;-70
2023/01/29 03:38:09;;;;;;;;;;;;;;;2.95;73.99;101329.13;5069965;28;19941;-70
2023/01/29 03:40:42;;;;;;;;;;;;;;;2.97;73.84;101325.66;5065612;28;20763;-70
2023/01/29 03:43:09;;;;;;;;;;;;;;;2.88;73.18;101332.50;5049842;28;19965;-70
2023/01/29 03:45:57;;;;;;;;;;;;;;;2.89;74.21;101334.25;5049218;28;19936;-70
2023/01/29 03:48:29;;;;;;;;;;;;;;;2.90;73.81;101336.06;5069359;28;20353;-70
2023/01/29 03:50:55;;;;;;;;;;;;;;;2.92;74.54;101339.56;5090121;28;20287;-70
2023/01/29 03:53:35;;;;;;;;;;;;;;;2.90;73.92;101336.06;5075872;28;19944;-70
2023/01/29 03:56:06;;;;;;;;;;;;;;;2.91;75.08;101332.56;5069257;28;19969;-70
2023/01/29 03:58:37;;;;;;;;;;;;;;;2.87;74.92;101328.13;5067539;28;19940;-71
2023/01/29 04:01:20;;;;;;;;;;;;;;;2.86;74.47;101334.19;5064458;28;19946;-70
2023/01/29 04:03:51;;;;;;;;;;;;;;;2.84;75.01;101325.41;5066544;28;19953;-69
2023/01/29 04:06:24;;;;;;;;;;;;;;;2.83;74.60;101335.03;5064366;28;20024;-68
2023/01/29 04:08:52;;;;;;;;;;;;;;;2.79;75.43;101327.06;5069127;28;19940;-69
2023/01/29 04:11:19;;;;;;;;;;;;;;;2.77;76.04;101331.41;5061209;28;19983;-69
2023/01/29 04:13:45;;;;;;;;;;;;;;;2.76;76.17;101333.16;5051583;28;19967;-70
2023/01/29 04:16:15;;;;;;;;;;;;;;;2.77;77.59;101340.16;5067133;28;19941;-70
2023/01/29 04:18:43;;;;;;;;;;;;;;;2.77;77.75;101334.03;5051367;28;19955;-69
2023/01/29 04:21:08;;;;;;;;;;;;;;;2.72;77.90;101336.56;5049480;28;19990;-69
2023/01/29 04:23:34;;;;;;;;;;;;;;;2.66;77.39;101339.06;5052262;28;20403;-69
2023/01/29 04:26:31;;;;;;;;;;;;;;;2.59;76.96;101332.81;5053069;28;19948;-68
2023/01/29 04:29:02;;;;;;;;;;;;;;;2.59;78.04;101330.19;5021881;28;19989;-70
2023/01/29 04:31:32;;;;;;;;;;;;;;;2.57;77.86;101331.88;5052880;28;20438;-71
2023/01/29 04:33:57;;;;;;;;;;;;;;;2.56;78.03;101340.63;5055491;28;20611;-70
2023/01/29 04:36:25;;;;;;;;;;;;;;;2.53;77.34;101337.94;5055930;28;19941;-69
2023/01/29 04:39:07;;;;;;;;;;;;;;;2.55;77.73;101333.59;5064431;28;19953;-67
2023/01/29 04:41:36;;;;;;;;;;;;;;;2.47;78.45;101334.31;5062723;28;20008;-69
2023/01/29 04:44:04;;;;;;;;;;;;;;;2.41;78.71;101324.56;5052843;28;19943;-70
2023/01/29 04:46:49;;;;;;;;;;;;;;;2.40;78.30;101328.03;5054351;28;19991;-70
2023/01/29 04:49:19;;;;;;;;;;;;;;;2.33;79.06;101325.25;4995064;28;19952;-69
2023/01/29 04:52:08;;;;;;;;;;;;;;;2.30;79.24;101335.69;5055356;28;19938;-70
2023/01/29 04:54:39;;;;;;;;;;;;;;;2.30;80.03;101330.44;5059589;28;19943;-70
2023/01/29 04:57:37;;;;;;;;;;;;;;;2.29;80.34;101329.53;5072229;28;19974;-71
2023/01/29 05:00:02;;;;;;;;;;;;;;;2.30;80.88;101333.06;5006828;28;19967;-71
2023/01/29 05:02:29;;;;;;;;;;;;;;;2.28;80.42;101330.41;5034898;28;19938;-69
2023/01/29 05:04:55;;;;;;;;;;;;;;;2.27;81.21;101331.22;5065105;28;20299;-70
2023/01/29 05:07:21;;;;;;;;;;;;;;;2.29;81.02;101326.91;5053037;28;19936;-71
2023/01/29 05:09:47;;;;;;;;;;;;;;;2.30;81.17;101333.94;5061606;28;20026;-70
2023/01/29 05:12:14;;;;;;;;;;;;;;;2.29;81.81;101340.03;5055905;28;20047;-70
2023/01/29 05:14:42;;;;;;;;;;;;;;;2.29;81.37;101345.28;5054645;28;19948;-70
2023/01/29 05:17:18;;;;;;;;;;;;;;;2.34;81.33;101343.66;5040876;28;19972;-70
2023/01/29 05:19:44;;;;;;;;;;;;;;;2.39;80.90;101347.25;5064527;28;20414;-70
2023/01/29 05:22:11;;;;;;;;;;;;;;;2.42;81.65;101352.56;5072251;28;19993;-71
2023/01/29 05:24:36;;;;;;;;;;;;;;;2.45;80.89;101346.50;5070412;28;19944;-70
2023/01/29 05:29:46;;;;;;;;;;;;;;;2.49;80.09;101332.56;5052414;28;19983;-70
2023/01/29 05:32:12;;;;;;;;;;;;;;;2.49;80.61;101325.59;5053927;28;19944;-69
2023/01/29 05:34:37;;;;;;;;;;;;;;;2.44;79.68;101313.22;5057841;28;19948;-70
2023/01/29 05:37:03;;;;;;;;;;;;;;;2.42;79.21;101305.31;5069070;28;19942;-70
2023/01/29 05:39:28;;;;;;;;;;;;;;;2.43;79.06;101296.59;5072217;28;19957;-70
2023/01/29 05:41:53;;;;;;;;;;;;;;;2.39;78.94;101294.75;5071748;28;19992;-70
2023/01/29 05:44:19;;;;;;;;;;;;;;;2.37;79.28;101306.09;5068544;28;19944;-70
2023/01/29 05:46:44;;;;;;;;;;;;;;;2.35;79.26;101313.94;5071664;28;20433;-70
2023/01/29 05:49:10;;;;;;;;;;;;;;;2.34;79.51;101320.03;5070778;28;19935;-70
2023/01/29 05:51:35;;;;;;;;;;;;;;;2.33;79.89;101315.63;5053937;28;20119;-69
2023/01/29 05:54:01;;;;;;;;;;;;;;;2.26;79.38;101310.22;5051783;28;20076;-70
2023/01/29 05:56:26;;;;;;;;;;;;;;;2.24;78.81;101310.19;5074890;28;20041;-70
2023/01/29 05:58:51;;;;;;;;;;;;;;;2.25;78.99;101322.47;5069065;28;19946;-69
2023/01/29 06:01:18;;;;;;;;;;;;;;;2.29;79.47;101321.66;5058332;28;20380;-71
2023/01/29 06:03:44;;;;;;;;;;;;;;;2.26;79.74;101313.72;5071377;28;20312;-69
2023/01/29 06:06:09;;;;;;;;;;;;;;;2.29;80.07;101316.41;5070378;28;19949;-71
2023/01/29 06:08:35;;;;;;;;;;;;;;;2.31;80.16;101333.09;5067155;28;19945;-70
2023/01/29 06:11:00;;;;;;;;;;;;;;;2.26;81.13;101334.72;5071294;28;19942;-70
2023/01/29 06:13:25;;;;;;;;;;;;;;;2.25;81.04;101335.59;5067539;28;20415;-70
2023/01/29 06:15:50;;;;;;;;;;;;;;;2.28;81.29;101333.03;5071301;28;19941;-70
2023/01/29 06:18:16;;;;;;;;;;;;;;;2.30;81.19;101341.84;5071245;28;20056;-70
2023/01/29 06:20:41;;;;;;;;;;;;;;;2.28;81.17;101348.78;5071306;28;19964;-71
2023/01/29 06:23:06;;;;;;;;;;;;;;;2.28;81.34;101350.50;5058140;28;20025;-70
2023/01/29 06:25:31;;;;;;;;;;;;;;;2.24;81.77;101340.81;5051127;28;20379;-71
2023/01/29 06:27:57;;;;;;;;;;;;;;;2.22;81.65;101348.66;5053308;28;19941;-70
2023/01/29 06:30:22;;;;;;;;;;;;;;;2.17;80.50;101350.28;5050856;28;20318;-69
2023/01/29 06:32:47;;;;;;;;;;;;;;;2.18;80.65;101341.56;5033035;28;20035;-70
2023/01/29 06:35:13;;;;;;;;;;;;;;;2.16;81.01;101348.50;5046206;28;19973;-70
2023/01/29 06:37:38;;;;;;;;;;;;;;;2.13;80.27;101343.19;5071231;28;19964;-70
2023/01/29 06:40:03;;;;;;;;;;;;;;;2.08;80.19;101344.81;5064459;28;20404;-70
2023/01/29 06:42:29;;;;;;;;;;;;;;;2.11;79.68;101344.03;5055581;28;19943;-71
2023/01/29 06:44:54;;;;;;;;;;;;;;;2.13;79.87;101344.91;5050814;28;20734;-70
2023/01/29 06:47:19;;;;;;;;;;;;;;;2.12;80.02;101346.69;5051001;28;19940;-70
2023/01/29 06:49:45;;;;;;;;;;;;;;;2.11;80.65;101336.16;5051082;28;19937;-70
2023/01/29 06:52:10;;;;;;;;;;;;;;;2.09;81.26;101340.47;5052604;28;20402;-70
2023/01/29 06:54:35;;;;;;;;;;;;;;;2.10;80.75;101339.59;5050863;28;19933;-69
2023/01/29 06:57:00;;;;;;;;;;;;;;;2.10;81.04;101336.97;5052241;28;19943;-70
2023/01/29 06:59:26;;;;;;;;;;;;;;;2.07;80.15;101340.44;5050432;28;19963;-70
2023/01/29 07:01:51;;;;;;;;;;;;;;;2.05;80.46;101330.75;5074156;28;19937;-69
2023/01/29 07:04:16;;;;;;;;;;;;;;;2.00;81.32;101330.66;5068852;28;19944;-70
2023/01/29 07:06:41;;;;;;;;;;;;;;;2.02;80.61;101326.31;5067850;28;19971;-70
2023/01/29 07:09:07;;;;;;;;;;;;;;;2.03;80.24;101325.47;5066990;28;20006;-71
2023/01/29 07:11:36;;;;;;;;;;;;;;;2.00;80.63;101328.03;5051993;28;19978;-71
2023/01/29 07:14:02;;;;;;;;;;;;;;;2.00;81.67;101330.66;5070154;28;19947;-69
2023/01/29 07:16:27;;;;;;;;;;;;;;;2.02;81.58;101333.31;5069598;28;19967;-71
2023/01/29 07:18:52;;;;;;;;;;;;;;;2.03;82.46;101343.81;5042175;28;20363;-70
2023/01/29 07:21:17;;;;;;;;;;;;;;;2.06;82.18;101343.88;5050385;28;19989;-70
2023/01/29 07:23:43;;;;;;;;;;;;;;;2.11;82.46;101344.88;5035829;28;20322;-71
2023/01/29 07:26:09;;;;;;;;;;;;;;;2.14;82.21;101350.19;5051220;28;20666;-71
2023/01/29 07:28:35;;;;;;;;;;;;;;;2.18;82.78;101354.69;5070118;28;19937;-72
2023/01/29 07:31:00;;;;;;;;;;;;;;;2.21;82.97;101352.09;5055368;28;19939;-71
2023/01/29 07:33:26;;;;;;;;;;;;;;;2.29;82.07;101360.16;5049946;28;20417;-71
2023/01/29 07:35:51;;;;;;;;;;;;;;;2.34;83.27;101362.03;5045482;28;19969;-71
2023/01/29 07:38:17;;;;;;;;;;;;;;;2.33;81.36;101370.75;5050169;28;19990;-71
2023/01/29 07:40:42;;;;;;;;;;;;;;;2.43;82.25;101375.38;5047898;28;20015;-70
2023/01/29 07:43:08;;;;;;;;;;;;;;;2.54;81.74;101367.69;5054605;28;19952;-70
2023/01/29 07:45:37;;;;;;;;;;;;;;;2.48;80.12;101373.72;5070346;28;19942;-69
2023/01/29 07:48:03;;;;;;;;;;;;;;;2.60;79.47;101368.72;5038941;28;19945;-71
2023/01/29 07:50:29;;;;;;;;;;;;;;;2.68;78.82;101369.75;5066974;28;19972;-71
2023/01/29 07:52:55;;;;;;;;;;;;;;;2.73;77.79;101375.13;5065904;28;19988;-70
2023/01/29 07:55:20;;;;;;;;;;;;;;;2.75;77.66;101375.16;5069316;28;19933;-71
2023/01/29 07:57:46;;;;;;;;;;;;;;;2.81;77.03;101370.00;5072244;28;20375;-71
2023/01/29 08:00:12;;;;;;;;;;;;;;;2.86;75.97;101368.38;5052927;28;20424;-70
2023/01/29 08:02:37;;;;;;;;;;;;;;;2.93;76.80;101379.03;5049528;28;19929;-72
2023/01/29 08:05:03;;;;;;;;;;;;;;;3.03;76.54;101398.50;5061757;28;19943;-71
2023/01/29 08:07:28;;;;;;;;;;;;;;;3.11;76.57;101399.53;5049497;28;19999;-71
2023/01/29 08:09:53;;;;;;;;;;;;;;;3.13;77.01;101408.34;5058940;28;20074;-68
2023/01/29 08:12:19;;;;;;;;;;;;;;;3.19;76.35;101413.69;5056336;28;20050;-70
2023/01/29 08:14:44;;;;;;;;;;;;;;;3.22;76.54;101419.00;5069411;28;19967;-71
2023/01/29 08:17:10;;;;;;;;;;;;;;;3.26;76.23;101418.22;5062002;28;19973;-71
2023/01/29 08:19:35;;;;;;;;;;;;;;;3.23;76.27;101419.03;5049457;28;19957;-71
2023/01/29 08:22:00;;;;;;;;;;;;;;;3.29;75.56;101424.44;5049271;28;19933;-72
2023/01/29 08:24:26;;;;;;;;;;;;;;;3.34;75.71;101414.00;5051220;28;19935;-71
2023/01/29 08:26:51;;;;;;;;;;;;;;;3.39;75.50;101421.13;5031292;28;19995;-71
2023/01/29 08:29:16;;;;;;;;;;;;;;;3.38;74.69;101415.81;5054928;28;20287;-70
2023/01/29 08:31:42;;;;;;;;;;;;;;;3.49;74.40;101414.28;5051048;28;20019;-71
2023/01/29 08:34:07;;;;;;;;;;;;;;;3.59;74.52;101419.72;5069289;28;19939;-72
2023/01/29 08:36:33;;;;;;;;;;;;;;;3.70;74.76;101417.28;5068949;28;19934;-70
2023/01/29 08:38:58;;;;;;;;;;;;;;;3.76;75.28;101420.00;5059383;28;19941;-72
2023/01/29 08:41:24;;;;;;;;;;;;;;;3.84;75.10;101421.00;5069086;28;19939;-71
2023/01/29 08:43:49;;;;;;;;;;;;;;;3.89;74.22;101421.97;5047333;28;19971;-72
2023/01/29 08:46:14;;;;;;;;;;;;;;;4.00;73.92;101430.97;5030526;28;20313;-72
2023/01/29 08:48:39;;;;;;;;;;;;;;;4.11;73.83;101418.84;5049479;28;19944;-71
2023/01/29 08:51:05;;;;;;;;;;;;;;;4.16;72.89;101417.16;5061992;28;19939;-72
2023/01/29 08:53:30;;;;;;;;;;;;;;;4.18;71.54;101415.47;5050984;28;19951;-71
2023/01/29 08:55:56;;;;;;;;;;;;;;;4.15;71.26;101372.41;5063086;28;19948;-71
2023/01/29 08:58:21;;;;;;;;;;;;;;;4.70;70.75;101417.97;5049167;28;19937;-71
2023/01/29 09:00:46;;;;;;;;;;;;;;;5.00;69.74;101415.72;5050642;28;19964;-70
2023/01/29 09:03:11;;;;;;;;;;;;;;;5.18;68.36;101412.41;5065282;28;20354;-71
2023/01/29 09:05:37;;;;;;;;;;;;;;;5.26;68.34;101410.72;5049041;28;19943;-71
2023/01/29 09:08:04;;;;;;;;;;;;;;;5.25;67.09;101411.63;5050777;28;20346;-70
2023/01/29 09:10:29;;;;;;;;;;;;;;;5.24;66.76;101402.81;5045486;28;19955;-70
2023/01/29 09:12:54;;;;;;;;;;;;;;;5.23;65.20;101401.06;5067422;28;19953;-71
2023/01/29 09:15:19;;;;;;;;;;;;;;;5.32;65.25;101406.41;5051955;28;20723;-70
2023/01/29 09:17:45;;;;;;;;;;;;;;;5.41;64.90;101400.34;5051477;28;19960;-70
2023/01/29 09:20:10;;;;;;;;;;;;;;;5.59;63.97;101404.91;5054685;28;20431;-71
2023/01/29 09:22:36;;;;;;;;;;;;;;;5.61;62.61;101400.53;5071172;28;19967;-70
2023/01/29 09:25:01;;;;;;;;;;;;;;;5.63;62.90;101412.91;5065506;28;20034;-70
2023/01/29 09:27:26;;;;;;;;;;;;;;;5.76;62.05;101419.16;5051416;28;19943;-69
2023/01/29 09:29:52;;;;;;;;;;;;;;;5.81;61.20;101423.63;5033691;28;19940;-69
2023/01/29 09:32:17;;;;;;;;;;;;;;;5.95;61.75;101436.94;5053928;28;19941;-71
2023/01/29 09:34:42;;;;;;;;;;;;;;;6.09;61.24;101438.88;5060926;28;20361;-70
2023/01/29 09:37:08;;;;;;;;;;;;;;;5.98;60.08;101432.59;5065363;28;19936;-70
2023/01/29 09:39:33;;;;;;;;;;;;;;;6.16;59.74;101426.59;5066823;28;20387;-70
2023/01/29 09:42:07;;;;;;;;;;;;;;;6.46;60.05;101418.84;5074456;28;19939;-71
2023/01/29 09:44:39;;;;;;;;;;;;;;;6.93;59.16;101403.25;5071651;28;19943;-71
2023/01/29 09:47:08;;;;;;;;;;;;;;;7.33;56.82;101398.09;5071650;28;19940;-70
2023/01/29 09:49:40;;;;;;;;;;;;;;;7.55;56.19;101402.56;5062024;28;19982;-70
2023/01/29 09:52:13;;;;;;;;;;;;;;;7.76;55.48;101384.03;5073311;28;19931;-71
2023/01/29 09:54:41;;;;;;;;;;;;;;;7.84;53.94;101373.47;5066505;28;19947;-71
2023/01/29 09:57:10;;;;;;;;;;;;;;;8.11;53.64;101364.59;5051447;28;19939;-71
2023/01/29 09:59:35;;;;;;;;;;;;;;;8.60;53.16;101363.66;5033662;28;19956;-70
2023/01/29 10:02:19;;;;;;;;;;;;;;;9.09;50.62;101359.91;5033293;28;19974;-71
2023/01/29 10:04:51;;;;;;;;;;;;;;;8.72;49.01;101366.25;5058105;28;19938;-70
2023/01/29 10:07:25;;;;;;;;;;;;;;;8.23;49.58;101359.28;5070010;28;19943;-71
2023/01/29 10:09:59;;;;;;;;;;;;;;;7.95;51.04;101372.56;5071153;28;19937;-71
2023/01/29 10:12:34;;;;;;;;;;;;;;;7.90;51.85;101363.75;5053993;28;20027;-71
2023/01/29 10:15:16;;;;;;;;;;;;;;;7.79;51.98;101364.63;5051171;28;20003;-71
2023/01/29 10:17:47;;;;;;;;;;;;;;;7.66;52.75;101363.72;5061083;28;20584;-71
2023/01/29 10:20:31;;;;;;;;;;;;;;;7.49;52.34;101365.50;5071399;28;19960;-71
2023/01/29 10:23:15;;;;;;;;;;;;;;;7.33;53.40;101363.69;5047578;28;19946;-71
2023/01/29 10:25:41;;;;;;;;;;;;;;;7.35;54.14;101372.50;5053561;28;19954;-72
2023/01/29 10:28:21;;;;;;;;;;;;;;;7.25;53.61;101365.44;5051824;28;19943;-71
2023/01/29 10:30:54;;;;;;;;;;;;;;;7.24;53.90;101368.06;5053358;28;19951;-71
2023/01/29 10:33:25;;;;;;;;;;;;;;;7.38;54.29;101372.50;5051299;28;19933;-71
2023/01/29 10:35:53;;;;;;;;;;;;;;;7.22;53.44;101375.13;5068264;28;20327;-71
2023/01/29 10:38:18;;;;;;;;;;;;;;;7.24;53.87;101371.63;5069244;28;19931;-71
2023/01/29 10:41:07;;;;;;;;;;;;;;;7.30;54.94;101373.38;5057208;28;19972;-71
2023/01/29 10:43:51;;;;;;;;;;;;;;;7.39;52.54;101376.94;5030883;28;19990;-71
2023/01/29 10:46:36;;;;;;;;;;;;;;;7.62;53.04;101371.69;5050325;28;19942;-70
2023/01/29 10:49:20;;;;;;;;;;;;;;;7.64;53.36;101365.47;5051448;28;19940;-71
2023/01/29 10:51:51;;;;;;;;;;;;;;;7.63;52.81;101358.44;5064969;28;20465;-71
2023/01/29 10:54:32;;;;;;;;;;;;;;;7.72;52.97;101360.22;5049702;28;19932;-72
2023/01/29 10:57:16;;;;;;;;;;;;;;;7.68;53.58;101369.03;5031548;28;20042;-72
2023/01/29 10:59:53;;;;;;;;;;;;;;;7.70;53.91;101376.09;5049661;28;20377;-71
2023/01/29 11:02:21;;;;;;;;;;;;;;;7.84;53.50;101373.47;5065201;28;19952;-71
2023/01/29 11:04:46;;;;;;;;;;;;;;;7.93;53.39;101366.38;5068750;28;19938;-71
2023/01/29 11:07:12;;;;;;;;;;;;;;;7.85;52.55;101365.50;5072378;28;20082;-71
2023/01/29 11:10:01;;;;;;;;;;;;;;;8.19;53.63;101376.09;5067039;28;19951;-71
2023/01/29 11:12:29;;;;;;;;;;;;;;;8.36;51.26;101377.84;5070276;28;20427;-71
2023/01/29 11:15:04;;;;;;;;;;;;;;;8.30;53.15;101369.94;5070305;28;19933;-71
2023/01/29 11:17:29;;;;;;;;;;;;;;;8.34;51.92;101354.88;5068023;28;20347;-71
2023/01/29 11:19:55;;;;;;;;;;;;;;;8.34;51.39;101350.47;5069683;28;19962;-72
2023/01/29 11:22:23;;;;;;;;;;;;;;;8.32;51.70;101346.91;5068265;28;19935;-72
2023/01/29 11:25:09;;;;;;;;;;;;;;;8.01;50.17;101340.78;5041271;28;20321;-72
2023/01/29 11:27:39;;;;;;;;;;;;;;;8.11;52.06;101338.09;5069961;28;19955;-71
2023/01/29 11:30:13;;;;;;;;;;;;;;;8.02;50.55;101334.56;5069739;28;20031;-72
2023/01/29 11:32:39;;;;;;;;;;;;;;;8.10;49.94;101328.38;5066273;28;19944;-71
2023/01/29 11:35:18;;;;;;;;;;;;;;;8.01;51.67;101329.28;5068341;28;19941;-71
2023/01/29 11:37:44;;;;;;;;;;;;;;;8.01;50.92;101327.53;5069597;28;19968;-71
2023/01/29 11:40:22;;;;;;;;;;;;;;;8.02;51.79;101331.94;5070870;28;19968;-71
2023/01/29 11:42:48;;;;;;;;;;;;;;;8.25;51.67;101317.78;5070111;28;19986;-71
2023/01/29 11:45:19;;;;;;;;;;;;;;;8.57;51.13;101318.56;5069578;28;19934;-71
2023/01/29 11:47:48;;;;;;;;;;;;;;;8.82;49.51;101317.56;5069953;28;19941;-71
2023/01/29 11:50:18;;;;;;;;;;;;;;;9.03;48.97;101322.75;5050223;28;19940;-71
2023/01/29 11:52:44;;;;;;;;;;;;;;;9.25;48.64;101320.00;5049647;28;19935;-71
2023/01/29 11:55:16;;;;;;;;;;;;;;;9.22;48.41;101303.19;5033320;28;20026;-71
2023/01/29 11:57:45;;;;;;;;;;;;;;;9.16;48.00;101305.88;5059348;28;20063;-70
2023/01/29 12:00:22;;;;;;;;;;;;;;;9.06;48.49;101301.53;5069512;28;20025;-72
2023/01/29 12:02:52;;;;;;;;;;;;;;;8.97;48.65;101298.94;5049593;28;19946;-70
2023/01/29 12:05:19;;;;;;;;;;;;;;;9.17;49.24;101289.97;5048880;28;20379;-70
2023/01/29 12:07:53;;;;;;;;;;;;;;;9.45;48.03;101281.78;5049098;28;20390;-71
2023/01/29 12:10:38;;;;;;;;;;;;;;;9.73;47.53;101278.00;5065233;28;19980;-71
2023/01/29 12:13:09;;;;;;;;;;;;;;;9.92;47.56;101268.94;5068755;28;19954;-70
2023/01/29 12:15:38;;;;;;;;;;;;;;;10.46;46.05;101255.94;5057917;28;19949;-70
2023/01/29 12:18:15;;;;;;;;;;;;;;;10.74;47.05;101250.28;5048110;28;19970;-70
2023/01/29 12:20:50;;;;;;;;;;;;;;;11.53;46.21;101238.38;5051066;28;19972;-71
2023/01/29 12:23:35;;;;;;;;;;;;;;;11.73;43.49;101236.28;5068178;28;19983;-72
2023/01/29 12:26:00;;;;;;;;;;;;;;;12.15;41.58;101231.06;5067946;28;19942;-72
2023/01/29 12:28:32;;;;;;;;;;;;;;;12.91;42.76;101226.75;5051321;28;20320;-72
2023/01/29 12:31:16;;;;;;;;;;;;;;;13.80;40.40;101215.63;5048702;28;19933;-72
2023/01/29 12:33:51;;;;;;;;;;;;;;;13.91;38.57;101225.13;5057502;28;19947;-72
2023/01/29 12:36:20;;;;;;;;;;;;;;;13.89;39.79;101212.69;5068451;28;19937;-73
2023/01/29 12:38:45;;;;;;;;;;;;;;;13.73;38.91;101203.34;5065183;28;19948;-73
2023/01/29 12:41:23;;;;;;;;;;;;;;;14.20;37.50;101200.25;5068141;28;19958;-73
2023/01/29 12:43:52;;;;;;;;;;;;;;;14.03;37.44;101198.06;5068764;28;19956;-72
2023/01/29 12:46:20;;;;;;;;;;;;;;;13.79;39.59;101203.19;5070864;28;19942;-73
2023/01/29 12:48:47;;;;;;;;;;;;;;;13.68;38.75;101205.25;5073092;28;19990;-73
2023/01/29 12:51:14;;;;;;;;;;;;;;;13.43;38.78;101188.09;5047568;28;19946;-72
2023/01/29 12:53:48;;;;;;;;;;;;;;;13.16;38.15;101177.19;5036722;28;19993;-73
2023/01/29 12:56:18;;;;;;;;;;;;;;;13.30;38.97;101170.63;5052363;28;20012;-73
2023/01/29 12:58:45;;;;;;;;;;;;;;;13.93;39.42;101167.13;5059089;28;19947;-73
2023/01/29 13:01:17;;;;;;;;;;;;;;;14.02;39.21;101174.88;5056786;28;20513;-73
2023/01/29 13:04:09;;;;;;;;;;;;;;;13.94;38.59;101176.00;5060019;28;19944;-72
2023/01/29 13:06:40;;;;;;;;;;;;;;;14.18;38.20;101180.69;5059062;28;19944;-74
2023/01/29 13:09:07;;;;;;;;;;;;;;;14.19;37.22;101169.06;5055671;28;20318;-73
2023/01/29 13:11:40;;;;;;;;;;;;;;;13.67;38.68;101164.28;5069749;28;19999;-73
2023/01/29 13:14:17;;;;;;;;;;;;;;;13.07;38.82;101164.06;5052210;28;20308;-72
2023/01/29 13:16:45;;;;;;;;;;;;;;;12.70;40.30;101160.47;5036930;28;19968;-74
2023/01/29 13:19:26;;;;;;;;;;;;;;;12.20;40.35;101151.81;5063126;28;21402;-74
2023/01/29 13:21:53;;;;;;;;;;;;;;;11.66;41.84;101156.47;5052466;28;19948;-74